Kezdőlap
METAR-TAF:

METAR-TAF

Repülőterek :

Aden, Jemen

földrajzi szélesség: 12-40N, földrajzi hosszúság: 045-02E, magasság: 3 m

Jelenlegi meteorológiai megfigyelések

A jelentés 17 órával és 6 perccel ezelõtt készült, 14:00 UTC
Délnyugati szél 13 kt
Hőmérséklet 35°C
Páratartalom 63%
Légköri nyomás 1003 hPa
Látótávolság: 6000 m
Kevés felhő 1800 lábon

METAR: OYAA 271400Z 22013KT 6000 FEW018 35/27 Q1003 NOSIG

Idő: 10:06 (07:06 UTC)


TAF: hiányzik

Meteorológiai megfigyelések és előrejelzések több, mint 4000 repülőtéren (METAR és TAF jelentéseket).

A térképen piros és sárga pontok jelzik az elérhető meteorológiai állomásokat.

Mozgassa az egeret a pont fölött, hogy megjelenjen az állomás neve.

Azután kattintson az időjárási megfigyelések és előrejelzések megtekintéséhez.

A térkép megváltoztatása: kattintson a fekete keresztel jelölt zöld gombra ráközelítéshez, a vonallal jelölt zöld gombra távolításhoz, vagy a zöld nyilakra a szomszédos térképek eléréséhez.


METAR-TAF: